Time;durP1;ratioP1;P1;durP2;ratioP2;P2;SDS_P1;SDS_P2;PMS_P1;PMS_P2;Temp;Humidity;BMP_temperature;BMP_pressure;BME280_temperature;BME280_humidity;BME280_pressure;Samples;Min_cycle;Max_cycle;Signal;HPM_P1;HPM_P2
2022/12/22 03:25:54;;;;;;;37.42;11.27;;;9.30;99.90;;;;;;5057348;28;20031;-80
2022/12/22 03:28:24;;;;;;;37.13;13.48;;;9.30;99.90;;;;;;5056780;28;20029;-81
2022/12/22 03:31:02;;;;;;;37.70;12.13;;;9.20;99.90;;;;;;5055454;28;20013;-80
2022/12/22 03:33:29;;;;;;;35.13;12.23;;;9.30;99.90;;;;;;5056863;28;20511;-81
2022/12/22 03:35:55;;;;;;;33.40;11.50;;;9.30;99.90;;;;;;5055146;28;20033;-82
2022/12/22 03:38:21;;;;;;;37.65;12.75;;;9.30;99.90;;;;;;5055412;28;20017;-80
2022/12/22 03:40:47;;;;;;;34.20;12.52;;;;;;;;;;5056795;28;20017;-81
2022/12/22 03:48:34;;;;;;;29.85;11.50;;;9.20;99.90;;;;;;5056672;28;20083;-82
2022/12/22 03:50:59;;;;;;;35.50;11.68;;;9.20;99.90;;;;;;5055138;28;20013;-81
2022/12/22 03:53:25;;;;;;;30.35;10.48;;;9.20;99.90;;;;;;5055257;28;20499;-81
2022/12/22 03:55:50;;;;;;;31.65;11.80;;;9.90;99.90;;;;;;5056233;28;20025;-81
2022/12/22 03:58:16;;;;;;;29.00;10.63;;;10.90;99.90;;;;;;5055393;28;20115;-81
2022/12/22 04:00:42;;;;;;;35.92;11.75;;;9.20;99.90;;;;;;5055073;28;20549;-80
2022/12/22 04:03:10;;;;;;;33.38;13.07;;;9.20;99.90;;;;;;5054868;28;20476;-80
2022/12/22 04:05:36;;;;;;;34.53;12.38;;;9.20;99.90;;;;;;5057234;28;20017;-81
2022/12/22 04:08:01;;;;;;;34.53;12.68;;;12.00;99.90;;;;;;5058258;28;20024;-81
2022/12/22 04:13:11;;;;;;;35.63;12.82;;;9.20;99.90;;;;;;5059608;28;20036;-81
2022/12/22 04:15:37;;;;;;;46.15;13.40;;;9.30;99.90;;;;;;5058018;28;20021;-81
2022/12/22 04:18:02;;;;;;;35.08;12.15;;;9.30;99.90;;;;;;5059412;28;20021;-81
2022/12/22 04:20:28;;;;;;;32.45;12.50;;;;;;;;;;5057908;28;20021;-81
2022/12/22 04:22:55;;;;;;;31.42;11.82;;;9.20;99.90;;;;;;5057539;28;20194;-80
2022/12/22 04:25:21;;;;;;;34.13;12.30;;;9.20;99.90;;;;;;5057532;28;20468;-81
2022/12/22 04:27:47;;;;;;;96.55;13.15;;;10.70;99.90;;;;;;5058375;28;20021;-81
2022/12/22 04:30:13;;;;;;;46.40;12.07;;;9.20;99.90;;;;;;5059039;28;20035;-81
2022/12/22 04:32:39;;;;;;;43.08;13.77;;;9.20;99.90;;;;;;5058366;28;20024;-81
2022/12/22 04:35:05;;;;;;;36.13;11.82;;;9.20;99.90;;;;;;5057866;28;20033;-81
2022/12/22 04:37:31;;;;;;;57.55;12.05;;;9.20;99.90;;;;;;5057493;28;20013;-81
2022/12/22 04:39:57;;;;;;;38.20;12.68;;;9.20;99.90;;;;;;5057877;28;20067;-81
2022/12/22 04:42:23;;;;;;;38.78;12.75;;;9.20;99.90;;;;;;5059125;28;20058;-80
2022/12/22 04:44:49;;;;;;;45.45;13.60;;;9.20;99.90;;;;;;5057680;28;20499;-80
2022/12/22 04:47:15;;;;;;;42.33;13.88;;;9.20;99.90;;;;;;5057756;28;20021;-80
2022/12/22 04:49:40;;;;;;;42.80;14.15;;;10.20;99.90;;;;;;5058496;28;20036;-81
2022/12/22 04:52:06;;;;;;;45.88;13.80;;;9.20;99.90;;;;;;5057778;28;20021;-80
2022/12/22 04:54:32;;;;;;;67.88;15.77;;;9.20;99.90;;;;;;5057150;28;20017;-80
2022/12/22 04:56:57;;;;;;;88.80;14.10;;;9.20;99.90;;;;;;5057193;28;20025;-81
2022/12/22 04:59:23;;;;;;;68.20;14.45;;;9.20;99.90;;;;;;5058625;28;20028;-81
2022/12/22 05:01:48;;;;;;;55.33;14.73;;;9.20;99.90;;;;;;5058525;28;20564;-81
2022/12/22 05:04:14;;;;;;;44.33;13.32;;;9.20;99.90;;;;;;5057669;28;20044;-81
2022/12/22 05:06:39;;;;;;;48.70;14.65;;;9.30;99.90;;;;;;5057532;28;20119;-81
2022/12/22 05:09:05;;;;;;;41.78;14.48;;;10.40;99.90;;;;;;5057098;28;20017;-81
2022/12/22 05:11:31;;;;;;;66.15;15.23;;;9.20;99.90;;;;;;5057429;28;20013;-82
2022/12/22 05:13:56;;;;;;;40.50;12.30;;;9.20;99.90;;;;;;5058585;28;20051;-81
2022/12/22 05:16:22;;;;;;;38.28;12.50;;;11.40;99.90;;;;;;5057276;28;20021;-80
2022/12/22 05:18:47;;;;;;;43.80;13.43;;;9.30;99.90;;;;;;5058951;28;20025;-81
2022/12/22 05:21:19;;;;;;;37.45;12.52;;;9.20;99.90;;;;;;5057082;28;20039;-80
2022/12/22 05:23:45;;;;;;;37.70;13.25;;;9.20;99.90;;;;;;5057095;28;20103;-81
2022/12/22 05:26:13;;;;;;;34.17;9.90;;;9.20;99.90;;;;;;5058767;28;20108;-80
2022/12/22 05:28:39;;;;;;;32.67;9.57;;;9.50;99.90;;;;;;5056977;28;20606;-81
2022/12/22 05:31:07;;;;;;;30.23;10.35;;;9.30;99.90;;;;;;5057174;28;20017;-81
2022/12/22 05:33:33;;;;;;;29.83;10.80;;;9.30;99.90;;;;;;5057821;28;20021;-81
2022/12/22 05:35:59;;;;;;;30.80;10.25;;;9.30;99.90;;;;;;5051302;22;20056;-80
2022/12/22 05:38:24;;;;;;;30.00;9.80;;;9.30;99.90;;;;;;5019295;28;20075;-80
2022/12/22 05:40:50;;;;;;;36.47;10.50;;;10.30;99.90;;;;;;5019352;28;20029;-79
2022/12/22 05:43:16;;;;;;;36.28;11.50;;;9.30;99.90;;;;;;5036227;28;20028;-80
2022/12/22 05:45:45;;;;;;;40.08;12.82;;;9.30;99.90;;;;;;5018206;28;20017;-80
2022/12/22 05:48:11;;;;;;;50.72;15.35;;;9.20;99.90;;;;;;5036480;28;20056;-80
2022/12/22 05:50:37;;;;;;;50.17;15.07;;;9.20;99.90;;;;;;5037473;28;20052;-81
2022/12/22 05:53:07;;;;;;;54.67;15.43;;;9.30;99.90;;;;;;5037363;28;20476;-80
2022/12/22 05:55:33;;;;;;;61.88;14.45;;;9.20;99.90;;;;;;5018770;28;20073;-80
2022/12/22 05:58:02;;;;;;;59.85;15.65;;;9.20;99.90;;;;;;5018706;28;20020;-80
2022/12/22 06:00:28;;;;;;;;;;;9.10;99.90;;;;;;5036320;28;20037;-79
2022/12/22 06:02:54;;;;;;;53.78;16.02;;;9.20;99.90;;;;;;5017264;28;20012;-78
2022/12/22 06:05:20;;;;;;;65.40;15.73;;;9.10;99.90;;;;;;5016900;28;20484;-80
2022/12/22 06:07:45;;;;;;;61.95;16.10;;;9.40;99.90;;;;;;5017811;28;20032;-80
2022/12/22 06:10:12;;;;;;;57.42;15.55;;;9.00;99.90;;;;;;5035949;28;20057;-80
2022/12/22 06:12:38;;;;;;;63.22;16.48;;;11.20;99.90;;;;;;5036401;28;20447;-80
2022/12/22 06:15:05;;;;;;;46.90;14.43;;;9.00;99.90;;;;;;5036451;28;20029;-80
2022/12/22 06:17:30;;;;;;;59.28;15.80;;;9.00;99.90;;;;;;5037055;28;20025;-79
2022/12/22 06:19:56;;;;;;;50.10;15.82;;;9.00;99.90;;;;;;5019314;28;20369;-81
2022/12/22 06:22:21;;;;;;;55.22;15.02;;;9.00;99.90;;;;;;5019515;28;20419;-80
2022/12/22 06:24:47;;;;;;;49.95;14.77;;;9.00;99.90;;;;;;5036030;28;20083;-79
2022/12/22 06:27:13;;;;;;;44.67;15.18;;;9.00;99.90;;;;;;5018599;28;20044;-79
2022/12/22 06:29:38;;;;;;;51.42;13.48;;;9.00;99.90;;;;;;5034855;28;20064;-79
2022/12/22 06:32:04;;;;;;;48.60;14.43;;;9.00;99.90;;;;;;5017745;28;20361;-80
2022/12/22 06:34:30;;;;;;;41.17;12.98;;;8.90;99.90;;;;;;5017297;28;20029;-80
2022/12/22 06:36:55;;;;;;;53.70;14.13;;;8.90;99.90;;;;;;5018462;28;20018;-80
2022/12/22 06:39:21;;;;;;;42.83;12.48;;;8.90;99.90;;;;;;5035360;28;20030;-79
2022/12/22 06:44:31;;;;;;;42.20;12.88;;;8.80;99.90;;;;;;5034310;28;20120;-79
2022/12/22 06:46:56;;;;;;;45.47;13.88;;;8.80;99.90;;;;;;5016209;28;20057;-79
2022/12/22 06:49:22;;;;;;;44.20;13.48;;;8.70;99.90;;;;;;5033878;28;20033;-78
2022/12/22 06:51:48;;;;;;;51.22;13.25;;;8.70;99.90;;;;;;5034770;28;20384;-78
2022/12/22 06:54:14;;;;;;;42.47;11.27;;;8.70;99.90;;;;;;5033406;28;20021;-76
2022/12/22 06:56:39;;;;;;;40.47;10.20;;;8.70;99.90;;;;;;5035085;28;20021;-79
2022/12/22 06:59:05;;;;;;;35.83;9.40;;;8.60;99.90;;;;;;5018143;28;20026;-80
2022/12/22 07:01:30;;;;;;;33.22;8.88;;;8.60;99.90;;;;;;5034869;28;20104;-79
2022/12/22 07:03:56;;;;;;;35.83;8.43;;;8.60;99.90;;;;;;5033852;28;20112;-80
2022/12/22 07:06:22;;;;;;;33.90;8.55;;;8.50;99.90;;;;;;5034105;28;20168;-79
2022/12/22 07:08:48;;;;;;;39.60;8.70;;;8.40;99.90;;;;;;5016968;28;20476;-78
2022/12/22 07:11:15;;;;;;;38.95;8.70;;;8.30;99.90;;;;;;5016254;28;20024;-79
2022/12/22 07:13:41;;;;;;;48.97;10.68;;;9.30;99.90;;;;;;5016133;28;20026;-79
2022/12/22 07:16:08;;;;;;;35.58;8.32;;;9.30;99.90;;;;;;5034341;28;20052;-79
2022/12/22 07:18:37;;;;;;;40.00;10.20;;;8.30;99.90;;;;;;5016006;28;20447;-80
2022/12/22 07:21:06;;;;;;;35.85;8.88;;;8.60;99.90;;;;;;5015886;28;20025;-79
2022/12/22 07:23:32;;;;;;;35.22;9.25;;;8.30;99.90;;;;;;5015761;28;20104;-79
2022/12/22 07:25:58;;;;;;;35.40;8.20;;;8.30;99.90;;;;;;5016362;28;20068;-79
2022/12/22 07:28:24;;;;;;;39.30;9.15;;;8.20;99.90;;;;;;5016199;28;20447;-80
2022/12/22 07:30:50;;;;;;;50.92;10.55;;;8.50;99.90;;;;;;5016283;28;20140;-79
2022/12/22 07:33:16;;;;;;;33.45;9.20;;;8.20;99.90;;;;;;5034193;28;20049;-79
2022/12/22 07:35:41;;;;;;;33.35;7.55;;;8.20;99.90;;;;;;5016040;28;20036;-79
2022/12/22 07:38:07;;;;;;;33.90;7.90;;;8.20;99.90;;;;;;5033975;28;20022;-79
2022/12/22 07:40:33;;;;;;;40.42;8.20;;;8.20;99.90;;;;;;5019700;28;20025;-80
2022/12/22 07:42:59;;;;;;;44.47;7.55;;;10.50;99.90;;;;;;5037717;28;20033;-79
2022/12/22 07:45:26;;;;;;;24.05;6.10;;;8.10;99.90;;;;;;5038073;28;20029;-80
2022/12/22 07:47:58;;;;;;;20.73;4.88;;;8.10;99.90;;;;;;5037001;28;20026;-79
2022/12/22 07:50:24;;;;;;;17.17;3.88;;;8.10;99.90;;;;;;5037393;28;20423;-79
2022/12/22 07:52:53;;;;;;;17.00;5.20;;;8.00;99.90;;;;;;5019382;28;20017;-80
2022/12/22 07:55:20;;;;;;;17.75;3.88;;;8.00;99.90;;;;;;5036864;28;20026;-80
2022/12/22 07:57:45;;;;;;;24.90;5.88;;;8.00;99.90;;;;;;5036996;28;20096;-79
2022/12/22 08:00:12;;;;;;;44.70;5.55;;;8.00;99.90;;;;;;5036800;28;20057;-79
2022/12/22 08:02:38;;;;;;;36.83;5.43;;;7.90;99.90;;;;;;5019027;28;20025;-80
2022/12/22 08:05:04;;;;;;;23.85;4.32;;;7.90;99.90;;;;;;5037576;28;20082;-79
2022/12/22 08:07:31;;;;;;;33.72;5.60;;;7.90;99.90;;;;;;5019373;28;20072;-79
2022/12/22 08:09:57;;;;;;;47.30;5.22;;;7.90;99.90;;;;;;5019018;28;20116;-80
2022/12/22 08:12:23;;;;;;;24.13;5.22;;;9.50;99.90;;;;;;5036817;28;20060;-79
2022/12/22 08:14:49;;;;;;;23.65;4.32;;;7.80;99.90;;;;;;5018825;28;20594;-79
2022/12/22 08:17:14;;;;;;;23.23;5.10;;;8.60;99.90;;;;;;5019116;28;20057;-79
2022/12/22 08:19:40;;;;;;;17.38;5.03;;;8.10;99.90;;;;;;5036263;28;20033;-79
2022/12/22 08:22:06;;;;;;;20.52;4.90;;;7.90;99.90;;;;;;5019133;28;20040;-79
2022/12/22 08:24:31;;;;;;;16.30;4.38;;;7.90;99.90;;;;;;5018996;28;20017;-79
2022/12/22 08:27:01;;;;;;;18.70;5.45;;;7.90;99.90;;;;;;5036869;28;20021;-80
2022/12/22 08:29:45;;;;;;;21.73;5.50;;;7.90;99.90;;;;;;5018810;28;20021;-79
2022/12/22 08:32:11;;;;;;;23.52;4.85;;;7.90;99.90;;;;;;5018923;28;20033;-79
2022/12/22 08:34:37;;;;;;;14.77;5.10;;;7.90;99.90;;;;;;5018743;28;20176;-80
2022/12/22 08:37:06;;;;;;;19.20;5.05;;;7.90;99.90;;;;;;5018727;28;20052;-80
2022/12/22 08:39:33;;;;;;;;;;;7.90;99.90;;;;;;5019369;28;20087;-79
2022/12/22 08:42:02;;;;;;;30.08;6.72;;;7.90;99.90;;;;;;5018826;28;19928;-79
2022/12/22 08:44:29;;;;;;;20.98;5.40;;;7.90;99.90;;;;;;5036364;28;20025;-79
2022/12/22 08:46:58;;;;;;;25.70;4.80;;;7.90;99.90;;;;;;5018171;28;20017;-80
2022/12/22 08:49:25;;;;;;;20.10;5.47;;;8.50;99.90;;;;;;5017941;28;20029;-79
2022/12/22 08:51:51;;;;;;;14.60;4.93;;;7.80;99.90;;;;;;5036140;28;20073;-79
2022/12/22 08:54:17;;;;;;;16.50;4.85;;;8.50;99.90;;;;;;5018688;28;20037;-79
2022/12/22 08:56:43;;;;;;;25.80;4.68;;;7.80;99.90;;;;;;5036235;28;20481;-80
2022/12/22 08:59:10;;;;;;;19.23;4.35;;;9.30;99.90;;;;;;5017917;28;20018;-79
2022/12/22 09:01:37;;;;;;;15.50;4.43;;;7.80;99.90;;;;;;5035873;28;20048;-79
2022/12/22 09:04:05;;;;;;;14.10;4.57;;;7.70;99.90;;;;;;5018077;28;20032;-79
2022/12/22 09:06:31;;;;;;;16.77;4.93;;;7.80;99.90;;;;;;5035590;28;20060;-79
2022/12/22 09:09:00;;;;;;;15.02;4.75;;;7.80;99.90;;;;;;5017819;28;20029;-79
2022/12/22 09:11:26;;;;;;;12.88;3.85;;;9.10;99.90;;;;;;5035450;28;20029;-80
2022/12/22 09:13:53;;;;;;;18.05;4.63;;;7.70;99.90;;;;;;5035330;28;20104;-79
2022/12/22 09:16:21;;;;;;;20.00;3.83;;;7.70;99.90;;;;;;5035577;28;20384;-79
2022/12/22 09:18:47;;;;;;;16.15;4.13;;;7.70;99.90;;;;;;5034369;28;20045;-79
2022/12/22 09:21:15;;;;;;;17.45;4.95;;;7.70;99.90;;;;;;5017646;28;20543;-79
2022/12/22 09:23:40;;;;;;;14.43;4.53;;;7.70;99.90;;;;;;5022030;28;20017;-80
2022/12/22 09:26:08;;;;;;;11.68;3.95;;;9.30;99.90;;;;;;5022042;28;20036;-80
2022/12/22 09:28:34;;;;;;;12.60;4.43;;;7.70;99.90;;;;;;5039068;28;20537;-80
2022/12/22 09:31:00;;;;;;;17.25;4.70;;;;;;;;;;5039801;28;20483;-80
2022/12/22 09:33:26;;;;;;;12.55;3.70;;;7.70;99.90;;;;;;5021146;28;20029;-80
2022/12/22 09:35:52;;;;;;;8.18;3.15;;;8.50;99.90;;;;;;5039011;28;20033;-80
2022/12/22 09:38:17;;;;;;;10.88;3.85;;;7.70;99.90;;;;;;5037813;28;20025;-80
2022/12/22 09:40:43;;;;;;;11.70;4.70;;;7.60;99.90;;;;;;5040040;28;20372;-80
2022/12/22 09:43:18;;;;;;;11.88;3.97;;;7.70;99.90;;;;;;5020333;28;20057;-80
2022/12/22 09:45:44;;;;;;;11.38;4.07;;;7.70;99.90;;;;;;5018523;28;20369;-80
2022/12/22 09:48:12;;;;;;;12.73;4.05;;;7.80;99.90;;;;;;5020170;28;20033;-80
2022/12/22 09:50:39;;;;;;;11.75;3.92;;;8.00;99.90;;;;;;5028598;28;20402;-80
2022/12/22 09:53:10;;;;;;;11.10;3.40;;;8.00;99.90;;;;;;5019033;28;20022;-80
2022/12/22 09:55:44;;;;;;;17.98;3.88;;;8.10;99.90;;;;;;5019225;28;20033;-80
2022/12/22 09:58:18;;;;;;;8.98;3.40;;;8.10;99.90;;;;;;5019364;28;20017;-80
2022/12/22 10:00:52;;;;;;;9.45;2.97;;;8.10;99.90;;;;;;5019290;28;20028;-80
2022/12/22 10:03:53;;;;;;;11.20;3.58;;;8.20;99.90;;;;;;5017067;28;20029;-80
2022/12/22 10:06:33;;;;;;;14.93;4.38;;;8.20;99.90;;;;;;5014906;28;20033;-81
2022/12/22 10:09:24;;;;;;;10.50;3.33;;;8.20;99.90;;;;;;5016771;28;20144;-80
2022/12/22 10:11:55;;;;;;;9.13;3.38;;;8.30;99.90;;;;;;5018742;28;20112;-80
2022/12/22 10:14:28;;;;;;;12.43;3.22;;;8.40;99.90;;;;;;5018789;28;20037;-80
2022/12/22 10:17:19;;;;;;;10.52;3.40;;;8.40;99.90;;;;;;5019573;28;20017;-81
2022/12/22 10:19:45;;;;;;;12.35;3.40;;;8.50;99.90;;;;;;5037973;28;20036;-80
2022/12/22 10:22:28;;;;;;;14.68;3.75;;;8.50;99.90;;;;;;5038176;28;20034;-81
2022/12/22 10:24:54;;;;;;;11.02;3.83;;;8.50;99.90;;;;;;5019952;28;20048;-80
2022/12/22 10:27:23;;;;;;;10.88;3.10;;;8.60;99.90;;;;;;5019743;28;20025;-80
2022/12/22 10:29:49;;;;;;;12.98;2.70;;;8.60;99.90;;;;;;5019751;28;20029;-80
2022/12/22 10:32:19;;;;;;;9.65;2.83;;;8.70;99.90;;;;;;5020342;28;20069;-80
2022/12/22 10:34:59;;;;;;;;;;;8.70;99.90;;;;;;5019969;28;20022;-80
2022/12/22 10:37:33;;;;;;;8.57;2.72;;;8.70;99.90;;;;;;5020383;28;19909;-80
2022/12/22 10:40:14;;;;;;;9.18;2.53;;;8.90;99.90;;;;;;5019394;28;20075;-80
2022/12/22 10:42:49;;;;;;;11.00;2.60;;;8.90;99.90;;;;;;5037797;28;20040;-80
2022/12/22 10:45:23;;;;;;;9.95;2.80;;;9.80;99.90;;;;;;5020180;28;20389;-80
2022/12/22 10:47:52;;;;;;;8.40;2.55;;;9.00;99.90;;;;;;5020008;28;20075;-80
2022/12/22 10:50:19;;;;;;;6.28;1.70;;;9.00;99.90;;;;;;5020374;28;20473;-80
2022/12/22 10:52:53;;;;;;;6.60;1.40;;;9.10;99.90;;;;;;5020415;28;20020;-80
2022/12/22 10:55:20;;;;;;;7.78;2.20;;;9.10;99.90;;;;;;5020075;28;20029;-80
2022/12/22 10:57:46;;;;;;;12.05;2.35;;;9.20;99.90;;;;;;5020187;28;20365;-79
2022/12/22 11:00:27;;;;;;;8.07;1.80;;;9.20;99.90;;;;;;5020416;28;20096;-80
2022/12/22 11:02:58;;;;;;;5.03;0.90;;;9.30;99.90;;;;;;5037059;28;20029;-78
2022/12/22 11:05:24;;;;;;;6.65;1.00;;;9.40;99.90;;;;;;5015624;28;20507;-77
2022/12/22 11:07:50;;;;;;;4.63;1.35;;;9.40;99.90;;;;;;5015532;28;20514;-77
2022/12/22 11:10:29;;;;;;;5.50;0.93;;;9.40;99.90;;;;;;5033046;28;20029;-77
2022/12/22 11:13:12;;;;;;;9.30;1.45;;;9.50;99.90;;;;;;5015761;28;20120;-77
2022/12/22 11:15:44;;;;;;;9.45;1.67;;;9.50;99.90;;;;;;5019481;28;20025;-77
2022/12/22 11:18:17;;;;;;;6.45;1.40;;;;;;;;;;5019461;28;20026;-77
2022/12/22 11:20:54;;;;;;;6.55;1.08;;;9.60;99.90;;;;;;5019769;28;20095;-77
2022/12/22 11:23:39;;;;;;;5.22;1.45;;;9.60;99.90;;;;;;5019351;28;20029;-77
2022/12/22 11:26:13;;;;;;;6.47;0.88;;;9.60;99.90;;;;;;5037186;28;20075;-77
2022/12/22 11:29:00;;;;;;;6.25;1.52;;;9.70;99.90;;;;;;5037239;28;20025;-77
2022/12/22 11:32:03;;;;;;;4.75;1.90;;;9.80;99.90;;;;;;5037219;28;20060;-77
2022/12/22 11:34:52;;;;;;;6.70;0.80;;;9.90;99.90;;;;;;5018924;28;20033;-77
2022/12/22 11:37:38;;;;;;;15.45;1.50;;;9.90;99.90;;;;;;5036826;28;20536;-77
2022/12/22 11:40:34;;;;;;;7.25;1.17;;;9.90;99.90;;;;;;5019034;28;20037;-77
2022/12/22 11:43:18;;;;;;;7.53;1.38;;;9.90;99.90;;;;;;5036940;28;20128;-77
2022/12/22 11:45:50;;;;;;;17.13;2.00;;;9.90;99.90;;;;;;5038697;28;20503;-80
2022/12/22 11:48:24;;;;;;;11.27;1.00;;;9.90;99.90;;;;;;5038848;28;20032;-79
2022/12/22 11:50:55;;;;;;;5.68;1.70;;;10.00;99.90;;;;;;5018870;28;20071;-77
2022/12/22 11:53:45;;;;;;;6.13;1.70;;;10.00;99.90;;;;;;5018776;28;20017;-76
2022/12/22 11:56:22;;;;;;;6.53;1.33;;;10.00;99.90;;;;;;5036419;28;20032;-76
2022/12/22 11:59:09;;;;;;;3.95;1.15;;;10.00;99.90;;;;;;5036546;28;20049;-76
2022/12/22 12:02:08;;;;;;;5.57;1.50;;;10.00;99.90;;;;;;5036618;28;20028;-77
2022/12/22 12:05:02;;;;;;;4.88;0.73;;;10.00;99.90;;;;;;5036956;28;20508;-76
2022/12/22 12:07:47;;;;;;;5.03;1.63;;;9.90;99.90;;;;;;5018583;28;20025;-77
2022/12/22 12:10:13;;;;;;;6.57;1.75;;;9.70;99.90;;;;;;5036174;28;20026;-77
2022/12/22 12:13:16;;;;;;;5.53;1.80;;;10.20;99.90;;;;;;5018640;28;20025;-76
2022/12/22 12:15:59;;;;;;;5.03;1.15;;;9.70;99.90;;;;;;5036293;28;20018;-76
2022/12/22 12:19:19;;;;;;;4.78;1.63;;;9.50;99.90;;;;;;5018467;28;20048;-76
2022/12/22 12:21:54;;;;;;;9.27;1.90;;;9.60;99.90;;;;;;4994587;28;20037;-76
2022/12/22 12:24:39;;;;;;;7.25;1.75;;;9.40;99.90;;;;;;5012305;28;20088;-76
2022/12/22 12:27:32;;;;;;;9.50;2.67;;;9.40;99.90;;;;;;5035800;28;20032;-77
2022/12/22 12:30:13;;;;;;;5.45;2.55;;;9.40;99.90;;;;;;5035839;28;20521;-76
2022/12/22 12:32:50;;;;;;;8.73;3.05;;;9.40;99.90;;;;;;5035861;28;20506;-76
2022/12/22 12:35:33;;;;;;;7.07;3.47;;;9.20;99.90;;;;;;5017875;28;20121;-76
2022/12/22 12:38:20;;;;;;;12.60;4.63;;;9.10;99.90;;;;;;5035882;28;20021;-76
2022/12/22 12:41:03;;;;;;;13.45;5.25;;;9.10;99.90;;;;;;5036298;28;20108;-77
2022/12/22 12:43:29;;;;;;;10.90;5.40;;;9.00;99.90;;;;;;5036369;28;20148;-77
2022/12/22 12:45:55;;;;;;;13.23;6.18;;;8.70;99.90;;;;;;5018445;28;20033;-77
2022/12/22 12:48:23;;;;;;;15.85;5.30;;;8.40;99.90;;;;;;5018100;28;20026;-77
2022/12/22 12:50:53;;;;;;;16.77;6.05;;;8.30;99.90;;;;;;5036153;28;20025;-76
2022/12/22 12:53:21;;;;;;;17.75;6.78;;;8.10;99.90;;;;;;5035649;28;20097;-76
2022/12/22 12:55:52;;;;;;;17.65;6.32;;;8.00;99.90;;;;;;5017782;28;20473;-76
2022/12/22 12:58:38;;;;;;;22.67;8.18;;;7.80;99.90;;;;;;5034226;28;20529;-76
2022/12/22 13:01:10;;;;;;;26.05;8.57;;;7.80;99.90;;;;;;5016639;28;20576;-77
2022/12/22 13:03:36;;;;;;;23.50;7.30;;;7.70;99.90;;;;;;5034862;28;20028;-77
2022/12/22 13:06:04;;;;;;;20.63;7.78;;;7.70;99.90;;;;;;5017168;28;20033;-77
2022/12/22 13:08:31;;;;;;;19.97;8.53;;;7.50;99.90;;;;;;5036161;28;20024;-78
2022/12/22 13:10:57;;;;;;;24.35;7.63;;;;;;;;;;5035441;28;20021;-77
2022/12/22 13:13:26;;;;;;;22.52;8.05;;;7.50;99.90;;;;;;5036120;28;20032;-77
2022/12/22 13:16:00;;;;;;;22.58;8.50;;;7.50;99.90;;;;;;5035631;28;20028;-77
2022/12/22 13:18:29;;;;;;;23.75;7.20;;;7.50;99.90;;;;;;5017534;28;20140;-77
2022/12/22 13:21:07;;;;;;;22.60;7.53;;;7.50;99.90;;;;;;5035968;28;20079;-77
2022/12/22 13:23:44;;;;;;;26.08;9.05;;;7.50;99.90;;;;;;5035587;28;20040;-77
2022/12/22 13:26:10;;;;;;;21.23;7.88;;;7.50;99.90;;;;;;5017751;28;20141;-77
2022/12/22 13:28:40;;;;;;;26.17;8.52;;;7.50;99.90;;;;;;5017555;28;20053;-77
2022/12/22 13:31:14;;;;;;;25.20;8.27;;;7.50;99.90;;;;;;5035150;28;20060;-77
2022/12/22 13:33:43;;;;;;;24.02;8.27;;;7.60;99.90;;;;;;5035448;28;20099;-77
2022/12/22 13:36:25;;;;;;;26.30;8.80;;;7.60;99.90;;;;;;5034613;28;20116;-77
2022/12/22 13:39:14;;;;;;;26.50;8.82;;;7.60;99.90;;;;;;5034692;28;20017;-77
2022/12/22 13:41:43;;;;;;;24.48;8.48;;;7.60;99.90;;;;;;5016617;28;20022;-77
2022/12/22 13:44:14;;;;;;;26.45;9.38;;;7.60;99.90;;;;;;5016874;28;20532;-77
2022/12/22 13:46:41;;;;;;;22.80;8.98;;;7.60;99.90;;;;;;5016838;28;20053;-77
2022/12/22 13:49:13;;;;;;;26.40;8.98;;;7.60;99.90;;;;;;5016824;28;20085;-77
2022/12/22 13:51:39;;;;;;;23.95;9.73;;;7.60;99.90;;;;;;5016738;28;20079;-77
2022/12/22 13:54:08;;;;;;;32.03;10.13;;;7.60;99.90;;;;;;5034447;28;20021;-77
2022/12/22 13:56:39;;;;;;;24.05;9.45;;;7.60;99.90;;;;;;5016567;28;20045;-78
2022/12/22 13:59:30;;;;;;;29.52;9.63;;;7.70;99.90;;;;;;5034305;28;20052;-77
2022/12/22 14:02:01;;;;;;;31.13;9.90;;;7.70;99.90;;;;;;5034244;28;20086;-77
2022/12/22 14:04:28;;;;;;;33.50;11.07;;;7.80;99.90;;;;;;5016533;28;20026;-78
2022/12/22 14:06:54;;;;;;;31.98;12.10;;;7.90;99.90;;;;;;5017038;28;20025;-78
2022/12/22 14:09:24;;;;;;;30.52;10.70;;;7.80;99.90;;;;;;5015880;28;20432;-78
2022/12/22 14:12:10;;;;;;;25.55;10.65;;;7.90;99.90;;;;;;5034180;28;20484;-77
2022/12/22 14:14:39;;;;;;;27.20;10.18;;;7.90;99.90;;;;;;5034056;28;20026;-77
2022/12/22 14:17:34;;;;;;;27.95;10.32;;;8.00;99.90;;;;;;5033963;28;20392;-77
2022/12/22 14:20:21;;;;;;;30.90;11.70;;;8.00;99.90;;;;;;5016295;28;20083;-77
2022/12/22 14:22:53;;;;;;;27.55;10.32;;;8.00;99.90;;;;;;5033180;28;20445;-77
2022/12/22 14:25:26;;;;;;;29.05;11.43;;;8.00;99.90;;;;;;5016083;28;20037;-77
2022/12/22 14:27:54;;;;;;;29.35;10.32;;;8.10;99.90;;;;;;5033759;28;20025;-77
2022/12/22 14:30:28;;;;;;;29.52;9.63;;;8.10;99.90;;;;;;5016006;28;20064;-78
2022/12/22 14:32:55;;;;;;;28.08;10.98;;;8.10;99.90;;;;;;5015945;28;20373;-78
2022/12/22 14:35:20;;;;;;;27.38;10.75;;;8.10;99.90;;;;;;5033443;28;20396;-75
2022/12/22 14:37:51;;;;;;;26.77;12.10;;;8.00;99.90;;;;;;5015666;28;20021;-75
2022/12/22 14:40:35;;;;;;;25.27;11.10;;;8.10;99.90;;;;;;5033407;28;20029;-77
2022/12/22 14:43:04;;;;;;;30.95;10.82;;;10.50;99.90;;;;;;5033562;28;20091;-77
2022/12/22 14:45:29;;;;;;;26.50;11.23;;;8.10;99.90;;;;;;5033494;28;20033;-77
2022/12/22 14:47:56;;;;;;;37.15;10.48;;;8.10;99.90;;;;;;5032709;28;20385;-75
2022/12/22 14:50:25;;;;;;;28.80;11.07;;;8.10;99.90;;;;;;5033201;28;20029;-77
2022/12/22 14:52:54;;;;;;;30.13;11.73;;;8.10;99.90;;;;;;5033853;28;20024;-75
2022/12/22 14:55:30;;;;;;;30.67;11.63;;;8.10;99.90;;;;;;5033330;28;20476;-76
2022/12/22 14:58:11;;;;;;;30.45;11.70;;;8.10;99.90;;;;;;5015707;28;20021;-77
2022/12/22 15:00:42;;;;;;;30.90;11.88;;;8.10;99.90;;;;;;5033244;28;20034;-77
2022/12/22 15:03:30;;;;;;;30.73;11.27;;;8.10;99.90;;;;;;5033438;28;20021;-77
2022/12/22 15:05:55;;;;;;;29.02;11.07;;;8.20;99.90;;;;;;5015754;28;20542;-77
2022/12/22 15:08:42;;;;;;;32.42;12.02;;;8.10;99.90;;;;;;5015485;28;20059;-76
2022/12/22 15:11:14;;;;;;;31.88;11.73;;;8.10;99.90;;;;;;5015654;28;20026;-77
2022/12/22 15:13:40;;;;;;;32.50;12.52;;;8.10;99.90;;;;;;5033187;28;20018;-75
2022/12/22 15:16:12;;;;;;;34.42;11.70;;;9.50;99.90;;;;;;5032975;28;20017;-75
2022/12/22 15:18:38;;;;;;;27.13;11.15;;;8.10;99.90;;;;;;5033404;28;20487;-76
2022/12/22 15:21:04;;;;;;;35.67;12.15;;;8.10;99.90;;;;;;5015458;28;20029;-76
2022/12/22 15:23:29;;;;;;;31.42;12.15;;;8.10;99.90;;;;;;5032977;28;20061;-76
2022/12/22 15:25:55;;;;;;;30.23;12.77;;;8.10;99.90;;;;;;5033544;28;20465;-76
2022/12/22 15:28:20;;;;;;;29.30;12.23;;;8.10;99.90;;;;;;5032816;28;20033;-76
2022/12/22 15:30:46;;;;;;;28.10;11.52;;;8.30;99.90;;;;;;5033053;28;20492;-76
2022/12/22 15:33:18;;;;;;;28.13;10.98;;;8.10;99.90;;;;;;5032866;28;20033;-76
2022/12/22 15:35:44;;;;;;;30.88;12.77;;;8.10;99.90;;;;;;5032607;28;20518;-76
2022/12/22 15:38:22;;;;;;;29.58;13.35;;;8.10;99.90;;;;;;5032896;28;20096;-76
2022/12/22 15:40:48;;;;;;;28.27;13.15;;;8.10;99.90;;;;;;5032857;28;20550;-76
2022/12/22 15:43:13;;;;;;;29.30;12.95;;;8.20;99.90;;;;;;5032818;28;20026;-76
2022/12/22 15:45:39;;;;;;;35.30;14.15;;;8.20;99.90;;;;;;5034180;28;20033;-77
2022/12/22 15:48:09;;;;;;;34.28;15.25;;;8.10;99.90;;;;;;5033679;28;20049;-75
2022/12/22 15:50:39;;;;;;;36.33;13.93;;;8.10;99.90;;;;;;5033023;28;20104;-75
2022/12/22 15:53:07;;;;;;;29.73;13.65;;;8.20;99.90;;;;;;5032689;28;20021;-76
2022/12/22 15:55:41;;;;;;;36.25;13.65;;;8.20;99.90;;;;;;5015034;28;20538;-75
2022/12/22 15:58:12;;;;;;;39.05;14.88;;;8.20;99.90;;;;;;5015253;28;20075;-76
2022/12/22 16:00:38;;;;;;;35.03;15.25;;;8.20;99.90;;;;;;5035377;28;20404;-76
2022/12/22 16:03:05;;;;;;;35.85;14.25;;;8.20;99.90;;;;;;5018471;28;20025;-76
2022/12/22 16:05:32;;;;;;;32.28;15.35;;;8.10;99.90;;;;;;5018542;28;20063;-76
2022/12/22 16:07:58;;;;;;;34.17;15.20;;;8.10;99.90;;;;;;5036612;28;20021;-76
2022/12/22 16:10:28;;;;;;;37.72;15.10;;;8.20;99.90;;;;;;5018476;28;20039;-78
2022/12/22 16:12:59;;;;;;;31.33;14.70;;;8.20;99.90;;;;;;5018939;28;20060;-75
2022/12/22 16:15:27;;;;;;;34.60;14.88;;;8.10;99.90;;;;;;5018796;28;20524;-80
2022/12/22 16:17:53;;;;;;;40.50;16.52;;;8.20;99.90;;;;;;5024970;28;20384;-80
2022/12/22 16:20:20;;;;;;;36.83;14.80;;;8.20;99.90;;;;;;5037154;28;20027;-78
2022/12/22 16:22:47;;;;;;;34.15;14.27;;;8.20;99.90;;;;;;5036557;28;20083;-79
2022/12/22 16:25:15;;;;;;;33.50;14.70;;;8.10;99.90;;;;;;5018607;28;20022;-79
2022/12/22 16:27:41;;;;;;;40.75;14.90;;;8.20;99.90;;;;;;5036549;28;20068;-80
2022/12/22 16:30:15;;;;;;;39.28;15.75;;;8.20;99.90;;;;;;5045030;28;20033;-80
2022/12/22 16:32:41;;;;;;;33.25;15.55;;;8.20;99.90;;;;;;5045103;28;20037;-80
2022/12/22 16:35:09;;;;;;;33.67;14.23;;;8.20;99.90;;;;;;5017985;28;20045;-77
2022/12/22 16:37:35;;;;;;;27.30;12.85;;;8.20;99.90;;;;;;5018091;28;20026;-77